Time;durP1;ratioP1;P1;durP2;ratioP2;P2;SDS_P1;SDS_P2;PMS_P1;PMS_P2;Temp;Humidity;BMP_temperature;BMP_pressure;BME280_temperature;BME280_humidity;BME280_pressure;Samples;Min_cycle;Max_cycle;Signal;HPM_P1;HPM_P2
2021/06/03 00:07:12;;;;;;;14.6;10.3;;;;;;;7.14;100;99326.41;;;;
2021/06/03 00:17:10;;;;;;;11.3;9.6;;;;;;;7.04;100;99321.84;;;;
2021/06/03 00:27:08;;;;;;;11.4;9.1;;;;;;;6.96;100;99328.53;;;;
2021/06/03 00:37:06;;;;;;;12.6;8.7;;;;;;;6.83;100;99328.23;;;;
2021/06/03 00:47:04;;;;;;;12.6;8.8;;;;;;;6.67;100;99338.09;;;;
2021/06/03 00:57:02;;;;;;;9;7.3;;;;;;;6.47;100;99327.31;;;;
2021/06/03 01:07:00;;;;;;;15.5;10.4;;;;;;;6.33;100;99336.89;;;;
2021/06/03 01:16:58;;;;;;;10.6;6.4;;;;;;;6.18;100;99345.66;;;;
2021/06/03 01:26:57;;;;;;;17.3;9.2;;;;;;;6.09;100;99347.22;;;;
2021/06/03 01:36:54;;;;;;;11.8;8.5;;;;;;;6.05;100;99351.48;;;;
2021/06/03 01:46:52;;;;;;;15.9;9.7;;;;;;;6.11;100;99352.33;;;;
2021/06/03 01:56:49;;;;;;;11.8;7.7;;;;;;;5.96;100;99359.2;;;;
2021/06/03 02:06:47;;;;;;;13;7.4;;;;;;;5.85;100;99357.48;;;;
2021/06/03 02:16:45;;;;;;;12.4;8.1;;;;;;;5.88;100;99358.86;;;;
2021/06/03 02:26:43;;;;;;;11.7;8.5;;;;;;;5.84;100;99369.24;;;;
2021/06/03 02:36:41;;;;;;;11.4;7.8;;;;;;;5.86;100;99374.38;;;;
2021/06/03 02:46:39;;;;;;;9.6;7.5;;;;;;;5.87;100;99382.13;;;;
2021/06/03 02:56:37;;;;;;;12.1;7.5;;;;;;;5.93;100;99386.48;;;;
2021/06/03 03:06:35;;;;;;;9.8;6.4;;;;;;;6;100;99384.35;;;;
2021/06/03 03:16:33;;;;;;;11.2;7.9;;;;;;;6.14;100;99394.63;;;;
2021/06/03 03:26:30;;;;;;;9.8;7.2;;;;;;;6.29;100;99392.83;;;;
2021/06/03 03:36:28;;;;;;;16;9.3;;;;;;;6.5;100;99399.09;;;;
2021/06/03 03:46:26;;;;;;;13.8;9.6;;;;;;;6.75;100;99401.07;;;;
2021/06/03 03:56:24;;;;;;;16;8.6;;;;;;;7.13;100;99405.2;;;;
2021/06/03 04:06:24;;;;;;;10.9;9.8;;;;;;;7.51;100;99407.41;;;;
2021/06/03 04:16:20;;;;;;;11.9;9.2;;;;;;;7.9;100;99408.49;;;;
2021/06/03 04:26:19;;;;;;;15.7;10.1;;;;;;;8.2;100;99409.52;;;;
2021/06/03 04:36:17;;;;;;;14.2;11.7;;;;;;;8.57;100;99420.75;;;;
2021/06/03 04:46:15;;;;;;;13.9;11;;;;;;;8.97;100;99430.52;;;;
2021/06/03 04:56:13;;;;;;;12.6;10.6;;;;;;;9.42;100;99434.84;;;;
2021/06/03 05:06:11;;;;;;;12.9;9.7;;;;;;;10.01;100;99448.94;;;;
2021/06/03 05:16:10;;;;;;;11.9;8.9;;;;;;;10.46;100;99447.73;;;;
2021/06/03 05:26:08;;;;;;;11.4;7.5;;;;;;;11;100;99450.06;;;;
2021/06/03 05:36:07;;;;;;;11.3;7.7;;;;;;;11.37;100;99462.02;;;;
2021/06/03 05:46:05;;;;;;;10.7;6.6;;;;;;;12.09;100;99468.77;;;;
2021/06/03 05:56:04;;;;;;;7.6;6.5;;;;;;;12.63;100;99463.47;;;;
2021/06/03 06:06:11;;;;;;;12.5;6.5;;;;;;;13.34;100;99472.09;;;;
2021/06/03 06:16:02;;;;;;;9.8;6.1;;;;;;;14.03;100;99476.19;;;;
2021/06/03 06:26:01;;;;;;;8.2;4.2;;;;;;;14.4;100;99480.47;;;;
2021/06/03 06:36:00;;;;;;;13.8;6.5;;;;;;;15.09;100;99485.09;;;;
2021/06/03 06:45:59;;;;;;;9.3;5;;;;;;;15.7;98.08887;99486;;;;
2021/06/03 06:55:58;;;;;;;6.8;3;;;;;;;16.54;88.30371;99491.69;;;;
2021/06/03 07:05:57;;;;;;;6.9;3.1;;;;;;;16.9;80.16211;99490.47;;;;
2021/06/03 07:15:56;;;;;;;7.2;3;;;;;;;17.32;79.66699;99489.44;;;;
2021/06/03 07:25:57;;;;;;;5.4;2.5;;;;;;;17.76;77.64551;99481.8;;;;
2021/06/03 07:35:55;;;;;;;5;2.2;;;;;;;17.75;75.07422;99485.66;;;;
2021/06/03 07:45:55;;;;;;;5;2;;;;;;;18.52;74.74414;99487.7;;;;
2021/06/03 07:55:54;;;;;;;4.5;2.1;;;;;;;18.46;67.4834;99472.66;;;;
2021/06/03 08:05:54;;;;;;;3.9;2.2;;;;;;;18.9;66.69824;99482.77;;;;
2021/06/03 08:15:54;;;;;;;6.8;2.8;;;;;;;19.04;70.04102;99480.49;;;;
2021/06/03 08:25:55;;;;;;;4.9;2.2;;;;;;;19.17;63.70117;99475.01;;;;
2021/06/03 08:35:53;;;;;;;4.7;2.4;;;;;;;19.37;61.24512;99474.08;;;;
2021/06/03 08:45:53;;;;;;;5.8;2.8;;;;;;;19.16;59.03027;99484.38;;;;
2021/06/03 09:05:52;;;;;;;4.8;2.5;;;;;;;19.73;57.37988;99474.05;;;;
2021/06/03 09:15:52;;;;;;;5.8;2.5;;;;;;;19.85;58.13574;99468.55;;;;
2021/06/03 09:25:52;;;;;;;5;2.3;;;;;;;20.08;53.66406;99482.48;;;;
2021/06/03 09:35:52;;;;;;;6.1;1.6;;;;;;;20.09;53.5957;99478.61;;;;
2021/06/03 09:45:51;;;;;;;4.6;2.5;;;;;;;20.17;53.79102;99474.91;;;;
2021/06/03 09:55:51;;;;;;;5.1;2.3;;;;;;;20.51;49.54199;99463.34;;;;
2021/06/03 10:05:51;;;;;;;5.3;1.9;;;;;;;20.62;46.07129;99471.06;;;;
2021/06/03 10:15:51;;;;;;;6.2;2.2;;;;;;;20.45;45.53027;99455.73;;;;
2021/06/03 10:25:51;;;;;;;8.3;3.1;;;;;;;20.37;42.88965;99460.26;;;;
2021/06/03 10:35:51;;;;;;;5.9;2.8;;;;;;;21.13;49.26172;99459.05;;;;
2021/06/03 10:45:51;;;;;;;5.7;2.4;;;;;;;20.95;44.03027;99460.54;;;;
2021/06/03 10:55:51;;;;;;;4.7;2.2;;;;;;;20.97;46.08594;99456.28;;;;
2021/06/03 11:05:51;;;;;;;6.5;3.1;;;;;;;21.73;44.22461;99460.38;;;;
2021/06/03 11:15:51;;;;;;;7.9;2.5;;;;;;;22.54;49.04297;99451.02;;;;
2021/06/03 11:25:51;;;;;;;4.2;2;;;;;;;22.55;44.16504;99441.63;;;;
2021/06/03 11:35:51;;;;;;;3.7;2.1;;;;;;;23.07;39.77051;99431.9;;;;
2021/06/03 11:45:54;;;;;;;4.1;2.3;;;;;;;23.06;41.88184;99425.6;;;;
2021/06/03 11:55:52;;;;;;;4.1;2;;;;;;;22.75;42.53223;99401.16;;;;
2021/06/03 12:05:54;;;;;;;4.5;2.4;;;;;;;22.83;40.67578;99424.85;;;;
2021/06/03 12:15:52;;;;;;;4.9;2.4;;;;;;;22.73;39.04883;99417.23;;;;
2021/06/03 12:25:52;;;;;;;20.5;13.2;;;;;;;22.79;38.24414;99421.25;;;;
2021/06/03 12:35:52;;;;;;;4.4;2.1;;;;;;;22.81;36.73145;99412.62;;;;
2021/06/03 12:45:52;;;;;;;5.2;2.2;;;;;;;23.08;38.76172;99396.95;;;;
2021/06/03 12:55:53;;;;;;;5.1;2.3;;;;;;;23.18;38.54785;99386.1;;;;
2021/06/03 13:05:53;;;;;;;4.6;2.5;;;;;;;23.11;38.97559;99391.5;;;;
2021/06/03 13:15:53;;;;;;;5.2;2.2;;;;;;;23.78;37.23535;99384.13;;;;
2021/06/03 13:25:54;;;;;;;3.9;1.6;;;;;;;24.06;37.41113;99373.44;;;;
2021/06/03 13:35:54;;;;;;;3.6;2.1;;;;;;;24.85;38.57324;99370.23;;;;
2021/06/03 13:45:54;;;;;;;4.6;2;;;;;;;25.35;34.93262;99373.3;;;;
2021/06/03 13:55:55;;;;;;;5.1;1.6;;;;;;;23.4;36.46191;99365.16;;;;
2021/06/03 14:05:55;;;;;;;5.6;3;;;;;;;23.64;34.3877;99370.2;;;;
2021/06/03 14:15:56;;;;;;;3.4;1.5;;;;;;;24.39;32.87695;99367.11;;;;
2021/06/03 14:25:58;;;;;;;6.4;3;;;;;;;24.95;32.69336;99360.47;;;;
2021/06/03 14:35:56;;;;;;;5.1;2.2;;;;;;;25.06;32.7959;99352.27;;;;
2021/06/03 14:45:56;;;;;;;4.9;2.4;;;;;;;25.17;33.78418;99342.05;;;;
2021/06/03 14:55:57;;;;;;;4.4;2.1;;;;;;;25.71;33.69434;99346.67;;;;
2021/06/03 15:05:57;;;;;;;8.5;2.4;;;;;;;27.85;32.85742;99344.91;;;;
2021/06/03 15:15:58;;;;;;;5;2.4;;;;;;;28.41;28.49121;99345.75;;;;
2021/06/03 15:26:00;;;;;;;4.6;2;;;;;;;26.89;29.53613;99344.45;;;;
2021/06/03 15:36:00;;;;;;;6.4;2.5;;;;;;;30.86;27.71094;99347.02;;;;
2021/06/03 15:46:02;;;;;;;5.3;2.3;;;;;;;30.14;26.20703;99346.61;;;;
2021/06/03 15:56:03;;;;;;;6.3;3.1;;;;;;;30.76;25.71582;99346.02;;;;
2021/06/03 16:06:05;;;;;;;5.1;2.2;;;;;;;30.74;25.39063;99348.44;;;;
2021/06/03 16:16:06;;;;;;;5.5;1.5;;;;;;;32.2;23.52246;99346.31;;;;
2021/06/03 16:26:08;;;;;;;7.8;2.2;;;;;;;32.3;23.47949;99336.91;;;;
2021/06/03 16:36:10;;;;;;;3.6;1.4;;;;;;;33.66;22.84961;99344.88;;;;
2021/06/03 16:46:12;;;;;;;4.8;1.7;;;;;;;33.49;22.16504;99345.38;;;;
2021/06/03 16:56:14;;;;;;;3.7;1.3;;;;;;;28.6;27.82324;99341.64;;;;
2021/06/03 17:06:17;;;;;;;4.4;2.3;;;;;;;26.31;31.41797;99336.53;;;;
2021/06/03 17:16:17;;;;;;;4.7;2.7;;;;;;;25.01;33.1709;99337.66;;;;
2021/06/03 17:26:18;;;;;;;7;3.2;;;;;;;23.9;36.69141;99337.09;;;;
2021/06/03 17:36:18;;;;;;;5.7;3.4;;;;;;;27.05;34.26953;99354.28;;;;
2021/06/03 17:46:19;;;;;;;8.6;5;;;;;;;28.31;31.86719;99363.25;;;;
2021/06/03 17:56:20;;;;;;;6;3.7;;;;;;;28.77;30.14746;99360.14;;;;
2021/06/03 18:06:21;;;;;;;7;4.5;;;;;;;26.15;32.99316;99366.5;;;;
2021/06/03 18:16:22;;;;;;;7.6;4.5;;;;;;;22.91;39.76855;99360.55;;;;
2021/06/03 18:26:22;;;;;;;9.9;5.9;;;;;;;20.47;46.26758;99355.67;;;;
2021/06/03 18:36:23;;;;;;;11.2;8;;;;;;;18.91;51.24121;99353.24;;;;
2021/06/03 18:46:22;;;;;;;10.6;6.9;;;;;;;18.1;53.33301;99356.02;;;;
2021/06/03 18:56:22;;;;;;;8.9;7.3;;;;;;;17.18;56.33691;99363.56;;;;
2021/06/03 19:06:20;;;;;;;11;8;;;;;;;16.56;58.13379;99375.16;;;;
2021/06/03 19:16:20;;;;;;;10.8;5.9;;;;;;;15.92;58.89941;99379.83;;;;
2021/06/03 19:26:19;;;;;;;6.9;6;;;;;;;15.41;61.14746;99377.14;;;;
2021/06/03 19:36:18;;;;;;;11.7;8.6;;;;;;;14.95;61.83887;99378.53;;;;
2021/06/03 19:46:17;;;;;;;10.9;6.7;;;;;;;14.56;63.01855;99389.42;;;;
2021/06/03 19:56:16;;;;;;;15.1;11.6;;;;;;;14.17;63.3291;99382.04;;;;
2021/06/03 20:06:16;;;;;;;11.5;7.6;;;;;;;14.08;64.86816;99378.49;;;;
2021/06/03 20:16:14;;;;;;;10;7.1;;;;;;;13.8;66.65332;99385.98;;;;
2021/06/03 20:26:13;;;;;;;14.8;9;;;;;;;13.53;65.88281;99386.91;;;;
2021/06/03 20:36:12;;;;;;;20.2;9.7;;;;;;;13.33;66.33105;99384.65;;;;
2021/06/03 20:46:11;;;;;;;8.9;5.3;;;;;;;13.08;66.57813;99377.86;;;;
2021/06/03 20:56:09;;;;;;;9.3;7;;;;;;;12.55;66.53027;99387.66;;;;
2021/06/03 21:06:08;;;;;;;15.6;11.3;;;;;;;12.11;76.36621;99405.22;;;;
2021/06/03 21:16:07;;;;;;;18;10.5;;;;;;;11.68;79.81836;99416.47;;;;
2021/06/03 21:26:05;;;;;;;9.9;8;;;;;;;11.29;80.7627;99411.38;;;;
2021/06/03 21:36:04;;;;;;;13.2;9.1;;;;;;;10.97;84.00879;99415.58;;;;
2021/06/03 21:46:03;;;;;;;11.8;7.6;;;;;;;10.69;93.40039;99411.08;;;;
2021/06/03 21:56:01;;;;;;;17.5;11.1;;;;;;;10.59;100;99403.92;;;;
2021/06/03 22:06:00;;;;;;;11.6;8.9;;;;;;;10.41;97.46875;99409.27;;;;
2021/06/03 22:15:58;;;;;;;13.3;10.6;;;;;;;10.26;100;99418.3;;;;
2021/06/03 22:25:57;;;;;;;9.8;8;;;;;;;10.13;100;99413.56;;;;
2021/06/03 22:35:55;;;;;;;12.5;8.6;;;;;;;9.91;100;99416.72;;;;
2021/06/03 22:45:53;;;;;;;14.7;11.2;;;;;;;9.79;100;99416.27;;;;
2021/06/03 22:55:52;;;;;;;12;9.2;;;;;;;9.54;100;99414.56;;;;
2021/06/03 23:05:50;;;;;;;11.6;8.8;;;;;;;9.44;100;99411.95;;;;
2021/06/03 23:15:48;;;;;;;12.1;7.7;;;;;;;9.28;100;99410.45;;;;
2021/06/03 23:25:47;;;;;;;10.5;6.2;;;;;;;9.01;100;99396.63;;;;
2021/06/03 23:35:45;;;;;;;10.6;7.2;;;;;;;8.97;100;99404.45;;;;
2021/06/03 23:45:44;;;;;;;9.6;7.8;;;;;;;8.89;100;99396.14;;;;
2021/06/03 23:55:42;;;;;;;10.5;5.7;;;;;;;8.64;100;99402.45;;;;
